sensor_id;sensor_type;location;lat;lon;timestamp;pressure;altitude;pressure_sealevel;temperature;humidity
64886;BME280;51514;52.206;5.114;2023-03-01T00:01:58;103314.09;;;2.00;75.23
64886;BME280;51514;52.206;5.114;2023-03-01T00:04:23;103316.75;;;2.00;74.74
64886;BME280;51514;52.206;5.114;2023-03-01T00:06:48;103319.44;;;1.98;75.03
64886;BME280;51514;52.206;5.114;2023-03-01T00:09:15;103315.06;;;1.96;74.87
64886;BME280;51514;52.206;5.114;2023-03-01T00:11:40;103310.88;;;1.87;74.26
64886;BME280;51514;52.206;5.114;2023-03-01T00:14:06;103316.38;;;1.81;74.11
64886;BME280;51514;52.206;5.114;2023-03-01T00:16:42;103311.19;;;1.76;74.03
64886;BME280;51514;52.206;5.114;2023-03-01T00:19:11;103311.50;;;1.64;74.09
64886;BME280;51514;52.206;5.114;2023-03-01T00:21:37;103315.50;;;1.48;74.16
64886;BME280;51514;52.206;5.114;2023-03-01T00:24:03;103313.75;;;1.47;74.55
64886;BME280;51514;52.206;5.114;2023-03-01T00:26:28;103308.44;;;1.47;74.81
64886;BME280;51514;52.206;5.114;2023-03-01T00:28:54;103303.09;;;1.49;75.00
64886;BME280;51514;52.206;5.114;2023-03-01T00:31:25;103301.31;;;1.49;74.55
64886;BME280;51514;52.206;5.114;2023-03-01T00:33:55;103302.06;;;1.53;74.69
64886;BME280;51514;52.206;5.114;2023-03-01T00:36:23;103301.16;;;1.54;74.89
64886;BME280;51514;52.206;5.114;2023-03-01T00:38:48;103298.41;;;1.58;74.72
64886;BME280;51514;52.206;5.114;2023-03-01T00:41:15;103289.50;;;1.59;75.06
64886;BME280;51514;52.206;5.114;2023-03-01T00:43:42;103293.03;;;1.60;74.55
64886;BME280;51514;52.206;5.114;2023-03-01T00:46:10;103287.69;;;1.61;75.46
64886;BME280;51514;52.206;5.114;2023-03-01T00:48:36;103294.81;;;1.59;75.20
64886;BME280;51514;52.206;5.114;2023-03-01T00:51:10;103303.50;;;1.66;75.20
64886;BME280;51514;52.206;5.114;2023-03-01T00:53:37;103290.16;;;1.67;74.93
64886;BME280;51514;52.206;5.114;2023-03-01T00:56:04;103290.09;;;1.70;74.66
64886;BME280;51514;52.206;5.114;2023-03-01T00:58:30;103295.44;;;1.69;74.74
64886;BME280;51514;52.206;5.114;2023-03-01T01:00:55;103296.31;;;1.69;74.86
64886;BME280;51514;52.206;5.114;2023-03-01T01:03:21;103292.78;;;1.69;75.17
64886;BME280;51514;52.206;5.114;2023-03-01T01:05:47;103294.75;;;1.62;75.57
64886;BME280;51514;52.206;5.114;2023-03-01T01:08:12;103288.63;;;1.59;75.35
64886;BME280;51514;52.206;5.114;2023-03-01T01:10:38;103294.84;;;1.58;75.33
64886;BME280;51514;52.206;5.114;2023-03-01T01:13:04;103293.94;;;1.59;75.79
64886;BME280;51514;52.206;5.114;2023-03-01T01:15:33;103280.69;;;1.57;75.52
64886;BME280;51514;52.206;5.114;2023-03-01T01:17:58;103277.06;;;1.61;75.48
64886;BME280;51514;52.206;5.114;2023-03-01T01:20:24;103270.75;;;1.64;75.31
64886;BME280;51514;52.206;5.114;2023-03-01T01:22:49;103270.72;;;1.65;75.28
64886;BME280;51514;52.206;5.114;2023-03-01T01:25:16;103267.16;;;1.66;75.25
64886;BME280;51514;52.206;5.114;2023-03-01T01:27:41;103263.63;;;1.66;75.03
64886;BME280;51514;52.206;5.114;2023-03-01T01:30:07;103261.97;;;1.62;75.16
64886;BME280;51514;52.206;5.114;2023-03-01T01:32:33;103258.59;;;1.55;75.56
64886;BME280;51514;52.206;5.114;2023-03-01T01:34:58;103254.22;;;1.53;75.33
64886;BME280;51514;52.206;5.114;2023-03-01T01:37:23;103251.81;;;1.43;74.83
64886;BME280;51514;52.206;5.114;2023-03-01T01:39:56;103252.00;;;1.37;75.31
64886;BME280;51514;52.206;5.114;2023-03-01T01:42:21;103254.06;;;1.26;75.28
64886;BME280;51514;52.206;5.114;2023-03-01T01:44:47;103246.16;;;1.23;75.25
64886;BME280;51514;52.206;5.114;2023-03-01T01:47:18;103245.34;;;1.20;75.27
64886;BME280;51514;52.206;5.114;2023-03-01T01:49:54;103244.63;;;1.15;74.66
64886;BME280;51514;52.206;5.114;2023-03-01T01:52:27;103243.97;;;1.05;74.67
64886;BME280;51514;52.206;5.114;2023-03-01T01:55:02;103242.16;;;1.07;74.76
64886;BME280;51514;52.206;5.114;2023-03-01T01:57:44;103239.41;;;1.10;74.48
64886;BME280;51514;52.206;5.114;2023-03-01T02:00:15;103247.41;;;1.08;74.51
64886;BME280;51514;52.206;5.114;2023-03-01T02:02:43;103244.84;;;1.05;74.44
64886;BME280;51514;52.206;5.114;2023-03-01T02:05:15;103238.75;;;1.02;74.38
64886;BME280;51514;52.206;5.114;2023-03-01T02:07:46;103234.53;;;0.93;74.42
64886;BME280;51514;52.206;5.114;2023-03-01T02:10:13;103233.75;;;0.88;74.69
64886;BME280;51514;52.206;5.114;2023-03-01T02:12:38;103225.78;;;0.88;74.43
64886;BME280;51514;52.206;5.114;2023-03-01T02:15:05;103231.13;;;0.87;74.41
64886;BME280;51514;52.206;5.114;2023-03-01T02:17:31;103238.25;;;0.86;74.38
64886;BME280;51514;52.206;5.114;2023-03-01T02:22:43;103229.59;;;0.78;74.35
64886;BME280;51514;52.206;5.114;2023-03-01T02:30:27;103223.44;;;0.76;74.45
64886;BME280;51514;52.206;5.114;2023-03-01T02:32:54;103235.91;;;0.74;74.66
64886;BME280;51514;52.206;5.114;2023-03-01T02:35:29;103233.28;;;0.72;74.61
64886;BME280;51514;52.206;5.114;2023-03-01T02:37:57;103224.44;;;0.72;74.62
64886;BME280;51514;52.206;5.114;2023-03-01T02:40:25;103225.31;;;0.72;74.82
64886;BME280;51514;52.206;5.114;2023-03-01T02:42:56;103220.09;;;0.68;74.78
64886;BME280;51514;52.206;5.114;2023-03-01T02:45:22;103215.03;;;0.59;75.14
64886;BME280;51514;52.206;5.114;2023-03-01T02:47:48;103213.28;;;0.58;75.76
64886;BME280;51514;52.206;5.114;2023-03-01T02:53:07;103210.69;;;0.55;75.72
64886;BME280;51514;52.206;5.114;2023-03-01T02:55:33;103203.78;;;0.48;75.67
64886;BME280;51514;52.206;5.114;2023-03-01T02:58:02;103196.88;;;0.41;75.84
64886;BME280;51514;52.206;5.114;2023-03-01T03:00:36;103200.44;;;0.40;75.79
64886;BME280;51514;52.206;5.114;2023-03-01T03:03:05;103199.78;;;0.30;75.75
64886;BME280;51514;52.206;5.114;2023-03-01T03:05:32;103205.19;;;0.25;75.67
64886;BME280;51514;52.206;5.114;2023-03-01T03:08:00;103208.84;;;0.21;75.71
64886;BME280;51514;52.206;5.114;2023-03-01T03:10:28;103194.75;;;0.18;76.15
64886;BME280;51514;52.206;5.114;2023-03-01T03:12:57;103195.56;;;0.21;76.25
64886;BME280;51514;52.206;5.114;2023-03-01T03:15:23;103191.97;;;0.24;75.87
64886;BME280;51514;52.206;5.114;2023-03-01T03:17:50;103195.56;;;0.21;75.57
64886;BME280;51514;52.206;5.114;2023-03-01T03:20:18;103190.16;;;0.26;75.18
64886;BME280;51514;52.206;5.114;2023-03-01T03:22:45;103188.44;;;0.23;74.63
64886;BME280;51514;52.206;5.114;2023-03-01T03:25:11;103184.09;;;0.21;74.65
64886;BME280;51514;52.206;5.114;2023-03-01T03:27:37;103188.38;;;0.26;74.54
64886;BME280;51514;52.206;5.114;2023-03-01T03:30:05;103185.75;;;0.25;74.60
64886;BME280;51514;52.206;5.114;2023-03-01T03:32:36;103180.47;;;0.23;74.42
64886;BME280;51514;52.206;5.114;2023-03-01T03:35:06;103164.59;;;0.22;74.56
64886;BME280;51514;52.206;5.114;2023-03-01T03:37:38;103169.06;;;0.21;74.36
64886;BME280;51514;52.206;5.114;2023-03-01T03:40:23;103174.34;;;0.21;74.74
64886;BME280;51514;52.206;5.114;2023-03-01T03:42:49;103169.84;;;0.23;74.68
64886;BME280;51514;52.206;5.114;2023-03-01T03:45:15;103169.88;;;0.22;74.51
64886;BME280;51514;52.206;5.114;2023-03-01T03:47:42;103169.97;;;0.19;74.90
64886;BME280;51514;52.206;5.114;2023-03-01T03:50:09;103164.72;;;0.17;74.93
64886;BME280;51514;52.206;5.114;2023-03-01T03:52:34;103173.72;;;0.10;75.48
64886;BME280;51514;52.206;5.114;2023-03-01T03:54:59;103172.78;;;0.11;75.70
64886;BME280;51514;52.206;5.114;2023-03-01T03:57:25;103169.31;;;0.09;75.80
64886;BME280;51514;52.206;5.114;2023-03-01T03:59:50;103171.00;;;0.12;75.37
64886;BME280;51514;52.206;5.114;2023-03-01T04:02:15;103164.84;;;0.11;74.98
64886;BME280;51514;52.206;5.114;2023-03-01T04:04:47;103166.72;;;0.06;75.07
64886;BME280;51514;52.206;5.114;2023-03-01T04:07:15;103165.94;;;0.01;75.08
64886;BME280;51514;52.206;5.114;2023-03-01T04:09:42;103166.03;;;-0.02;75.30
64886;BME280;51514;52.206;5.114;2023-03-01T04:12:08;103162.75;;;-0.13;75.50
64886;BME280;51514;52.206;5.114;2023-03-01T04:14:33;103159.38;;;-0.21;75.51
64886;BME280;51514;52.206;5.114;2023-03-01T04:16:59;103170.84;;;-0.21;75.51
64886;BME280;51514;52.206;5.114;2023-03-01T04:19:24;103167.44;;;-0.26;75.70
64886;BME280;51514;52.206;5.114;2023-03-01T04:21:49;103166.66;;;-0.31;75.80
64886;BME280;51514;52.206;5.114;2023-03-01T04:24:15;103168.41;;;-0.31;75.83
64886;BME280;51514;52.206;5.114;2023-03-01T04:26:40;103162.09;;;-0.24;75.58
64886;BME280;51514;52.206;5.114;2023-03-01T04:29:05;103164.00;;;-0.31;75.14
64886;BME280;51514;52.206;5.114;2023-03-01T04:31:31;103161.50;;;-0.39;75.42
64886;BME280;51514;52.206;5.114;2023-03-01T04:33:56;103163.25;;;-0.38;75.26
64886;BME280;51514;52.206;5.114;2023-03-01T04:36:25;103165.00;;;-0.37;75.54
64886;BME280;51514;52.206;5.114;2023-03-01T04:38:50;103163.25;;;-0.38;75.53
64886;BME280;51514;52.206;5.114;2023-03-01T04:41:18;103162.25;;;-0.32;75.60
64886;BME280;51514;52.206;5.114;2023-03-01T04:43:44;103156.00;;;-0.28;75.45
64886;BME280;51514;52.206;5.114;2023-03-01T04:46:13;103150.66;;;-0.26;75.32
64886;BME280;51514;52.206;5.114;2023-03-01T04:48:40;103154.94;;;-0.21;75.79
64886;BME280;51514;52.206;5.114;2023-03-01T04:51:06;103151.28;;;-0.14;75.59
64886;BME280;51514;52.206;5.114;2023-03-01T04:53:33;103150.34;;;-0.11;75.02
64886;BME280;51514;52.206;5.114;2023-03-01T04:55:59;103145.09;;;-0.14;75.16
64886;BME280;51514;52.206;5.114;2023-03-01T04:58:26;103154.81;;;-0.15;75.18
64886;BME280;51514;52.206;5.114;2023-03-01T05:00:52;103145.06;;;-0.13;75.14
64886;BME280;51514;52.206;5.114;2023-03-01T05:03:18;103140.53;;;-0.09;74.94
64886;BME280;51514;52.206;5.114;2023-03-01T05:05:46;103133.44;;;-0.07;75.04
64886;BME280;51514;52.206;5.114;2023-03-01T05:08:12;103134.34;;;-0.08;75.18
64886;BME280;51514;52.206;5.114;2023-03-01T05:10:50;103128.09;;;-0.06;74.92
64886;BME280;51514;52.206;5.114;2023-03-01T05:13:16;103132.56;;;-0.08;75.35
64886;BME280;51514;52.206;5.114;2023-03-01T05:15:59;103139.63;;;-0.07;75.18
64886;BME280;51514;52.206;5.114;2023-03-01T05:18:27;103133.44;;;-0.07;75.20
64886;BME280;51514;52.206;5.114;2023-03-01T05:20:54;103120.25;;;-0.10;75.32
64886;BME280;51514;52.206;5.114;2023-03-01T05:23:21;103129.91;;;-0.08;75.12
64886;BME280;51514;52.206;5.114;2023-03-01T05:25:47;103123.72;;;-0.08;74.78
64886;BME280;51514;52.206;5.114;2023-03-01T05:28:13;103117.56;;;-0.09;74.72
64886;BME280;51514;52.206;5.114;2023-03-01T05:30:39;103111.25;;;-0.03;74.23
64886;BME280;51514;52.206;5.114;2023-03-01T05:33:04;103108.72;;;-0.09;74.46
64886;BME280;51514;52.206;5.114;2023-03-01T05:35:32;103108.75;;;-0.11;74.38
64886;BME280;51514;52.206;5.114;2023-03-01T05:37:58;103097.31;;;-0.11;74.67
64886;BME280;51514;52.206;5.114;2023-03-01T05:40:24;103095.69;;;-0.18;74.84
64886;BME280;51514;52.206;5.114;2023-03-01T05:42:56;103093.03;;;-0.18;74.90
64886;BME280;51514;52.206;5.114;2023-03-01T05:45:23;103085.16;;;-0.21;75.03
64886;BME280;51514;52.206;5.114;2023-03-01T05:47:49;103087.75;;;-0.20;75.34
64886;BME280;51514;52.206;5.114;2023-03-01T05:50:18;103091.25;;;-0.18;75.21
64886;BME280;51514;52.206;5.114;2023-03-01T05:52:46;103081.59;;;-0.20;75.33
64886;BME280;51514;52.206;5.114;2023-03-01T05:55:12;103087.00;;;-0.25;75.42
64886;BME280;51514;52.206;5.114;2023-03-01T05:57:37;103075.72;;;-0.33;75.45
64886;BME280;51514;52.206;5.114;2023-03-01T06:00:03;103091.66;;;-0.34;75.63
64886;BME280;51514;52.206;5.114;2023-03-01T06:02:28;103078.41;;;-0.34;75.51
64886;BME280;51514;52.206;5.114;2023-03-01T06:04:54;103080.03;;;-0.29;75.92
64886;BME280;51514;52.206;5.114;2023-03-01T06:07:20;103090.75;;;-0.33;75.69
64886;BME280;51514;52.206;5.114;2023-03-01T06:09:45;103088.00;;;-0.30;75.85
64886;BME280;51514;52.206;5.114;2023-03-01T06:12:10;103085.25;;;-0.24;75.84
64886;BME280;51514;52.206;5.114;2023-03-01T06:14:36;103088.78;;;-0.25;75.44
64886;BME280;51514;52.206;5.114;2023-03-01T06:17:01;103095.03;;;-0.28;75.20
64886;BME280;51514;52.206;5.114;2023-03-01T06:19:26;103087.03;;;-0.26;75.06
64886;BME280;51514;52.206;5.114;2023-03-01T06:21:52;103078.28;;;-0.30;75.05
64886;BME280;51514;52.206;5.114;2023-03-01T06:24:17;103087.09;;;-0.29;74.82
64886;BME280;51514;52.206;5.114;2023-03-01T06:26:42;103091.56;;;-0.31;75.05
64886;BME280;51514;52.206;5.114;2023-03-01T06:29:07;103092.50;;;-0.32;74.91
64886;BME280;51514;52.206;5.114;2023-03-01T06:31:33;103091.53;;;-0.30;74.57
64886;BME280;51514;52.206;5.114;2023-03-01T06:33:59;103088.78;;;-0.25;75.13
64886;BME280;51514;52.206;5.114;2023-03-01T06:36:24;103086.13;;;-0.24;74.70
64886;BME280;51514;52.206;5.114;2023-03-01T06:38:49;103089.53;;;-0.20;74.99
64886;BME280;51514;52.206;5.114;2023-03-01T06:41:15;103097.38;;;-0.14;75.37
64886;BME280;51514;52.206;5.114;2023-03-01T06:43:40;103098.16;;;-0.11;75.03
64886;BME280;51514;52.206;5.114;2023-03-01T06:46:06;103094.53;;;-0.07;75.14
64886;BME280;51514;52.206;5.114;2023-03-01T06:48:32;103091.78;;;-0.02;74.71
64886;BME280;51514;52.206;5.114;2023-03-01T06:50:59;103099.75;;;-0.02;74.60
64886;BME280;51514;52.206;5.114;2023-03-01T06:53:26;103102.41;;;-0.02;74.54
64886;BME280;51514;52.206;5.114;2023-03-01T06:55:56;103094.56;;;-0.08;74.55
64886;BME280;51514;52.206;5.114;2023-03-01T06:58:21;103091.16;;;-0.13;74.94
64886;BME280;51514;52.206;5.114;2023-03-01T07:00:47;103092.09;;;-0.16;75.50
64886;BME280;51514;52.206;5.114;2023-03-01T07:03:12;103090.31;;;-0.15;75.82
64886;BME280;51514;52.206;5.114;2023-03-01T07:05:37;103088.38;;;-0.09;76.05
64886;BME280;51514;52.206;5.114;2023-03-01T07:08:02;103097.94;;;0.00;75.89
64886;BME280;51514;52.206;5.114;2023-03-01T07:10:28;103095.88;;;0.11;75.82
64886;BME280;51514;52.206;5.114;2023-03-01T07:12:57;103090.50;;;0.14;75.40
64886;BME280;51514;52.206;5.114;2023-03-01T07:15:23;103093.94;;;0.19;75.55
64886;BME280;51514;52.206;5.114;2023-03-01T07:17:49;103101.66;;;0.28;75.67
64886;BME280;51514;52.206;5.114;2023-03-01T07:20:16;103096.09;;;0.39;75.74
64886;BME280;51514;52.206;5.114;2023-03-01T07:22:41;103101.13;;;0.50;75.55
64886;BME280;51514;52.206;5.114;2023-03-01T07:37:59;103109.13;;;2.03;73.90
64886;BME280;51514;52.206;5.114;2023-03-01T07:40:25;103105.84;;;2.23;74.04
64886;BME280;51514;52.206;5.114;2023-03-01T07:42:55;103109.03;;;2.34;73.71
64886;BME280;51514;52.206;5.114;2023-03-01T07:45:21;103104.81;;;2.53;73.11
64886;BME280;51514;52.206;5.114;2023-03-01T07:47:46;103101.59;;;2.70;73.01
64886;BME280;51514;52.206;5.114;2023-03-01T07:50:11;103102.47;;;2.95;73.06
64886;BME280;51514;52.206;5.114;2023-03-01T07:52:38;103107.69;;;3.23;72.42
64886;BME280;51514;52.206;5.114;2023-03-01T07:55:04;103097.97;;;3.45;72.43
64886;BME280;51514;52.206;5.114;2023-03-01T07:57:29;103100.91;;;3.61;72.38
64886;BME280;51514;52.206;5.114;2023-03-01T07:59:55;103099.50;;;3.74;72.53
64886;BME280;51514;52.206;5.114;2023-03-01T08:02:20;103104.13;;;3.92;72.11
64886;BME280;51514;52.206;5.114;2023-03-01T08:04:45;103101.66;;;4.10;71.40
64886;BME280;51514;52.206;5.114;2023-03-01T08:07:10;103102.53;;;4.32;71.72
64886;BME280;51514;52.206;5.114;2023-03-01T08:09:36;103103.59;;;4.48;71.12
64886;BME280;51514;52.206;5.114;2023-03-01T08:12:03;103101.25;;;4.62;70.53
64886;BME280;51514;52.206;5.114;2023-03-01T08:14:29;103100.56;;;4.77;71.06
64886;BME280;51514;52.206;5.114;2023-03-01T08:16:55;103099.16;;;4.89;70.97
64886;BME280;51514;52.206;5.114;2023-03-01T08:19:20;103103.03;;;5.02;71.08
64886;BME280;51514;52.206;5.114;2023-03-01T08:21:45;103106.78;;;5.19;70.80
64886;BME280;51514;52.206;5.114;2023-03-01T08:24:11;103107.75;;;5.36;70.33
64886;BME280;51514;52.206;5.114;2023-03-01T08:26:37;103102.03;;;5.44;70.02
64886;BME280;51514;52.206;5.114;2023-03-01T08:29:03;103097.13;;;5.54;70.22
64886;BME280;51514;52.206;5.114;2023-03-01T08:31:31;103094.75;;;5.66;69.83
64886;BME280;51514;52.206;5.114;2023-03-01T08:33:59;103094.91;;;5.82;69.63
64886;BME280;51514;52.206;5.114;2023-03-01T08:36:28;103087.69;;;5.84;68.98
64886;BME280;51514;52.206;5.114;2023-03-01T08:38:54;103085.16;;;6.00;68.62
64886;BME280;51514;52.206;5.114;2023-03-01T08:41:19;103090.06;;;6.09;64.04
64886;BME280;51514;52.206;5.114;2023-03-01T08:43:45;103084.34;;;6.16;65.42
64886;BME280;51514;52.206;5.114;2023-03-01T08:46:11;103079.09;;;6.32;65.06
64886;BME280;51514;52.206;5.114;2023-03-01T08:48:37;103085.13;;;6.18;61.50
64886;BME280;51514;52.206;5.114;2023-03-01T08:51:11;103089.06;;;6.11;61.68
64886;BME280;51514;52.206;5.114;2023-03-01T08:53:37;103075.84;;;6.26;61.06
64886;BME280;51514;52.206;5.114;2023-03-01T08:56:03;103070.31;;;6.29;60.22
64886;BME280;51514;52.206;5.114;2023-03-01T08:58:29;103081.66;;;6.16;56.68
64886;BME280;51514;52.206;5.114;2023-03-01T09:00:54;103066.22;;;6.21;57.63
64886;BME280;51514;52.206;5.114;2023-03-01T09:03:23;103077.13;;;6.36;58.93
64886;BME280;51514;52.206;5.114;2023-03-01T09:05:49;103073.84;;;6.48;58.15
64886;BME280;51514;52.206;5.114;2023-03-01T09:08:16;103070.34;;;6.63;57.83
64886;BME280;51514;52.206;5.114;2023-03-01T09:10:41;103071.22;;;6.64;56.72
64886;BME280;51514;52.206;5.114;2023-03-01T09:13:06;103063.50;;;6.75;58.16
64886;BME280;51514;52.206;5.114;2023-03-01T09:15:32;103054.09;;;6.83;56.57
64886;BME280;51514;52.206;5.114;2023-03-01T09:17:58;103052.63;;;6.78;55.91
64886;BME280;51514;52.206;5.114;2023-03-01T09:20:24;103048.59;;;6.86;56.88
64886;BME280;51514;52.206;5.114;2023-03-01T09:22:49;103044.72;;;6.92;56.50
64886;BME280;51514;52.206;5.114;2023-03-01T09:25:14;103037.69;;;6.89;55.50
64886;BME280;51514;52.206;5.114;2023-03-01T09:27:40;103035.50;;;6.80;55.58
64886;BME280;51514;52.206;5.114;2023-03-01T09:30:06;103038.75;;;6.70;54.40
64886;BME280;51514;52.206;5.114;2023-03-01T09:32:31;103031.59;;;6.70;53.16
64886;BME280;51514;52.206;5.114;2023-03-01T09:34:57;103026.97;;;6.72;53.13
64886;BME280;51514;52.206;5.114;2023-03-01T09:37:33;103028.50;;;6.78;53.72
64886;BME280;51514;52.206;5.114;2023-03-01T09:39:58;103033.59;;;6.82;53.26
64886;BME280;51514;52.206;5.114;2023-03-01T09:42:24;103031.47;;;6.72;53.33
64886;BME280;51514;52.206;5.114;2023-03-01T09:44:54;103034.31;;;6.86;53.55
64886;BME280;51514;52.206;5.114;2023-03-01T09:47:26;103043.19;;;7.04;53.88
64886;BME280;51514;52.206;5.114;2023-03-01T09:49:57;103036.41;;;6.96;52.83
64886;BME280;51514;52.206;5.114;2023-03-01T09:54:56;103047.41;;;6.92;52.65
64886;BME280;51514;52.206;5.114;2023-03-01T09:57:51;103044.13;;;6.70;52.93
64886;BME280;51514;52.206;5.114;2023-03-01T10:00:26;103048.19;;;6.77;53.45
64886;BME280;51514;52.206;5.114;2023-03-01T10:03:27;103036.69;;;6.75;53.78
64886;BME280;51514;52.206;5.114;2023-03-01T10:08:35;103033.50;;;6.84;51.22
64886;BME280;51514;52.206;5.114;2023-03-01T10:11:05;103032.50;;;6.86;49.95
64886;BME280;51514;52.206;5.114;2023-03-01T10:14:05;103030.53;;;6.90;50.61
64886;BME280;51514;52.206;5.114;2023-03-01T10:19:25;103026.53;;;7.30;48.58
64886;BME280;51514;52.206;5.114;2023-03-01T10:21:53;103017.47;;;7.48;49.29
64886;BME280;51514;52.206;5.114;2023-03-01T10:24:19;103021.06;;;7.16;48.70
64886;BME280;51514;52.206;5.114;2023-03-01T10:26:57;103015.38;;;7.38;49.34
64886;BME280;51514;52.206;5.114;2023-03-01T10:29:30;103010.00;;;7.38;49.70
64886;BME280;51514;52.206;5.114;2023-03-01T10:31:57;103015.72;;;7.47;48.38
64886;BME280;51514;52.206;5.114;2023-03-01T10:34:31;103004.50;;;7.56;48.70
64886;BME280;51514;52.206;5.114;2023-03-01T10:37:22;103006.22;;;7.57;48.21
64886;BME280;51514;52.206;5.114;2023-03-01T10:40:06;103007.75;;;7.93;49.56
64886;BME280;51514;52.206;5.114;2023-03-01T10:42:36;103002.75;;;7.87;47.68
64886;BME280;51514;52.206;5.114;2023-03-01T10:48:03;103002.22;;;7.96;49.83
64886;BME280;51514;52.206;5.114;2023-03-01T10:50:28;102986.88;;;7.98;49.02
64886;BME280;51514;52.206;5.114;2023-03-01T10:53:02;102990.06;;;8.04;46.90
64886;BME280;51514;52.206;5.114;2023-03-01T10:55:37;102977.91;;;8.13;47.32
64886;BME280;51514;52.206;5.114;2023-03-01T10:58:18;102981.44;;;8.14;46.25
64886;BME280;51514;52.206;5.114;2023-03-01T11:00:54;102978.41;;;8.20;46.61
64886;BME280;51514;52.206;5.114;2023-03-01T11:03:26;102970.13;;;8.09;46.29
64886;BME280;51514;52.206;5.114;2023-03-01T11:05:55;102961.28;;;8.06;45.95
64886;BME280;51514;52.206;5.114;2023-03-01T11:08:39;102962.31;;;7.74;45.26
64886;BME280;51514;52.206;5.114;2023-03-01T11:14:05;102956.94;;;7.74;47.55
64886;BME280;51514;52.206;5.114;2023-03-01T11:16:37;102949.50;;;8.09;48.56
64886;BME280;51514;52.206;5.114;2023-03-01T11:21:36;102953.94;;;8.24;45.39
64886;BME280;51514;52.206;5.114;2023-03-01T11:24:08;102951.50;;;8.35;47.73
64886;BME280;51514;52.206;5.114;2023-03-01T11:26:38;102942.56;;;8.35;47.25
64886;BME280;51514;52.206;5.114;2023-03-01T11:29:35;102936.28;;;8.20;45.60
64886;BME280;51514;52.206;5.114;2023-03-01T11:31:59;102929.66;;;8.41;48.28
64886;BME280;51514;52.206;5.114;2023-03-01T11:34:49;102927.06;;;8.68;47.98
64886;BME280;51514;52.206;5.114;2023-03-01T11:37:40;102925.53;;;8.78;47.37
64886;BME280;51514;52.206;5.114;2023-03-01T11:40:04;102915.91;;;9.03;47.50
64886;BME280;51514;52.206;5.114;2023-03-01T11:45:12;102921.28;;;8.89;47.12
64886;BME280;51514;52.206;5.114;2023-03-01T11:47:51;102918.31;;;8.79;45.42
64886;BME280;51514;52.206;5.114;2023-03-01T11:50:30;102910.72;;;9.00;46.45
64886;BME280;51514;52.206;5.114;2023-03-01T11:53:03;102913.63;;;8.97;45.84
64886;BME280;51514;52.206;5.114;2023-03-01T11:58:54;102917.56;;;8.63;44.29
64886;BME280;51514;52.206;5.114;2023-03-01T12:01:41;102912.00;;;8.80;45.48
64886;BME280;51514;52.206;5.114;2023-03-01T12:07:29;102912.38;;;8.60;44.51
64886;BME280;51514;52.206;5.114;2023-03-01T12:10:14;102905.34;;;8.57;46.35
64886;BME280;51514;52.206;5.114;2023-03-01T12:26:28;102892.22;;;8.23;45.38
64886;BME280;51514;52.206;5.114;2023-03-01T12:31:48;102896.34;;;8.00;46.96
64886;BME280;51514;52.206;5.114;2023-03-01T12:40:03;102883.13;;;8.11;46.35
64886;BME280;51514;52.206;5.114;2023-03-01T12:42:54;102883.53;;;7.89;46.62
64886;BME280;51514;52.206;5.114;2023-03-01T12:48:37;102873.97;;;7.99;45.46
64886;BME280;51514;52.206;5.114;2023-03-01T12:51:08;102880.59;;;8.08;47.49
64886;BME280;51514;52.206;5.114;2023-03-01T12:53:40;102874.16;;;7.96;45.03
64886;BME280;51514;52.206;5.114;2023-03-01T12:56:09;102872.84;;;7.74;46.34
64886;BME280;51514;52.206;5.114;2023-03-01T12:59:01;102870.84;;;7.77;45.81
64886;BME280;51514;52.206;5.114;2023-03-01T13:02:10;102873.97;;;7.99;47.42
64886;BME280;51514;52.206;5.114;2023-03-01T13:05:24;102862.19;;;8.16;47.07
64886;BME280;51514;52.206;5.114;2023-03-01T13:08:01;102858.53;;;8.17;46.82
64886;BME280;51514;52.206;5.114;2023-03-01T13:15:35;102841.06;;;8.24;46.98
64886;BME280;51514;52.206;5.114;2023-03-01T13:20:46;102832.13;;;7.95;45.74
64886;BME280;51514;52.206;5.114;2023-03-01T13:31:01;102812.75;;;8.04;47.31
64886;BME280;51514;52.206;5.114;2023-03-01T13:35:57;102816.63;;;8.29;46.56
64886;BME280;51514;52.206;5.114;2023-03-01T13:38:44;102801.75;;;8.09;45.39
64886;BME280;51514;52.206;5.114;2023-03-01T13:41:11;102804.63;;;8.20;46.32
64886;BME280;51514;52.206;5.114;2023-03-01T13:43:40;102803.75;;;8.05;45.23
64886;BME280;51514;52.206;5.114;2023-03-01T13:46:18;102793.19;;;8.17;45.61
64886;BME280;51514;52.206;5.114;2023-03-01T13:48:49;102789.56;;;8.18;46.39
64886;BME280;51514;52.206;5.114;2023-03-01T13:51:16;102771.91;;;7.99;45.32
64886;BME280;51514;52.206;5.114;2023-03-01T13:53:47;102778.31;;;7.97;45.30
64886;BME280;51514;52.206;5.114;2023-03-01T13:56:39;102782.69;;;7.84;45.48
64886;BME280;51514;52.206;5.114;2023-03-01T13:59:13;102778.50;;;7.94;45.85
64886;BME280;51514;52.206;5.114;2023-03-01T14:01:38;102769.09;;;8.01;45.20
64886;BME280;51514;52.206;5.114;2023-03-01T14:04:24;102766.41;;;8.01;45.67
64886;BME280;51514;52.206;5.114;2023-03-01T14:06:51;102768.34;;;7.99;46.35
64886;BME280;51514;52.206;5.114;2023-03-01T14:09:26;102760.28;;;7.99;45.29
64886;BME280;51514;52.206;5.114;2023-03-01T14:17:24;102746.84;;;8.13;46.11
64886;BME280;51514;52.206;5.114;2023-03-01T14:19:59;102743.38;;;8.25;47.59
64886;BME280;51514;52.206;5.114;2023-03-01T14:22:30;102734.25;;;8.28;46.52
64886;BME280;51514;52.206;5.114;2023-03-01T14:25:00;102722.47;;;8.30;46.72
64886;BME280;51514;52.206;5.114;2023-03-01T14:27:37;102726.59;;;8.36;46.93
64886;BME280;51514;52.206;5.114;2023-03-01T14:30:19;102721.50;;;8.17;44.91
64886;BME280;51514;52.206;5.114;2023-03-01T14:32:58;102708.94;;;8.18;45.76
64886;BME280;51514;52.206;5.114;2023-03-01T14:35:29;102718.25;;;8.12;45.36
64886;BME280;51514;52.206;5.114;2023-03-01T14:37:55;102714.81;;;8.10;44.81
64886;BME280;51514;52.206;5.114;2023-03-01T14:40:27;102706.44;;;8.15;45.15
64886;BME280;51514;52.206;5.114;2023-03-01T14:42:54;102708.84;;;8.19;45.61
64886;BME280;51514;52.206;5.114;2023-03-01T14:45:20;102717.19;;;8.15;45.35
64886;BME280;51514;52.206;5.114;2023-03-01T14:47:46;102710.66;;;8.19;45.77